Raymondville, Texas
Current Conditions -  °F | °C
As of 2:52 PM on Friday 19 Dec 2014 (Local Time) from KHRL Reporting Station
Overcast Overcast  
Wind Chill: 61°   Ceiling: 500
Heat Index: 61°   Visibility: 10mi
Dew Point: 59°   Wind: 15mph
Humidity: 93%   Direction: 350°N
Pressure: 29.98"   Gusts: NA
Location:  26.48°N, 97.78°W
Report Text: KHRL 192052Z 35013KT 10SM OVC005 16/15 A2998 RMK AO2 RAB1954E1955 SLP151 P0000 60000 T01610150 55008
Loading
Personal Weather Stations






























Interactive Weather Map New forecast layout! Learn more

10-Day Weather Forecast

Advertisements
Track Severe Weather on mobile